createdAt,value
2023-03-13T00:01:36.841Z,5.61923
2023-03-13T00:06:38.531Z,5.52681
2023-03-13T00:11:40.154Z,5.66782
2023-03-13T00:16:41.862Z,5.29021
2023-03-13T00:21:43.567Z,5.09839
2023-03-13T00:26:45.212Z,4.81003
2023-03-13T00:31:46.881Z,4.84401
2023-03-13T00:36:48.529Z,3.95257
2023-03-13T00:41:50.135Z,4.01958
2023-03-13T00:46:51.804Z,3.62705
2023-03-13T00:51:53.451Z,3.78235
2023-03-13T00:56:55.160Z,4.58518
2023-03-13T01:01:56.831Z,4.50928
2023-03-13T01:06:58.508Z,4.64425
2023-03-13T01:12:00.357Z,2.8147
2023-03-13T01:17:02.047Z,3.2593
2023-03-13T01:22:03.641Z,3.02589
2023-03-13T01:27:05.350Z,3.33171
2023-03-13T01:32:07.056Z,3.15673
2023-03-13T01:37:08.692Z,3.07448
2023-03-13T01:42:10.340Z,3.0135
2023-03-13T01:47:12.001Z,3.08368
2023-03-13T01:52:13.706Z,3.1183
2023-03-13T01:57:15.441Z,2.84011
2023-03-13T02:02:17.087Z,2.75913
2023-03-13T02:07:18.774Z,2.63559
2023-03-13T02:12:20.391Z,2.14875
2023-03-13T02:17:22.042Z,2.01569
2023-03-13T02:22:23.698Z,1.81308
2023-03-13T02:27:25.303Z,1.7194
2023-03-13T02:32:27.830Z,2.04618
2023-03-13T02:37:29.500Z,2.17384
2023-03-13T02:42:31.149Z,1.59936
2023-03-13T02:47:32.797Z,2.39265
2023-03-13T02:52:34.440Z,2.56001
2023-03-13T02:57:36.111Z,2.78707
2023-03-13T03:02:37.765Z,2.94872
2023-03-13T03:07:39.366Z,3.24279
2023-03-13T03:12:41.023Z,2.33263
2023-03-13T03:17:42.785Z,1.76894
2023-03-13T03:22:44.427Z,1.81118
2023-03-13T03:27:46.053Z,2.2653
2023-03-13T03:32:47.772Z,2.05698
2023-03-13T03:37:49.471Z,2.3755
2023-03-13T03:42:51.144Z,2.2526
2023-03-13T03:47:52.819Z,2.22402
2023-03-13T03:52:54.459Z,1.31037
2023-03-13T03:57:56.184Z,1.74925
2023-03-13T04:02:57.911Z,1.94265
2023-03-13T04:07:59.688Z,2.33517
2023-03-13T04:13:01.410Z,1.95758
2023-03-13T04:18:03.043Z,2.12589
2023-03-13T04:23:04.684Z,2.27292
2023-03-13T04:28:06.383Z,1.8785
2023-03-13T04:33:08.274Z,2.00553
2023-03-13T04:38:09.892Z,1.92264
2023-03-13T04:43:11.562Z,2.03379
2023-03-13T04:48:13.242Z,1.95472
2023-03-13T04:53:14.835Z,1.9417
2023-03-13T04:58:16.455Z,1.89406
2023-03-13T05:03:18.248Z,1.84135
2023-03-13T05:08:19.911Z,1.77434
2023-03-13T05:13:21.625Z,1.80673
2023-03-13T05:18:23.302Z,1.64636
2023-03-13T05:23:24.951Z,1.98933
2023-03-13T05:28:26.617Z,2.00998
2023-03-13T05:33:28.200Z,2.07095
2023-03-13T05:38:29.864Z,1.58158
2023-03-13T05:43:31.457Z,1.05854
2023-03-13T05:48:33.071Z,0.78321
2023-03-13T05:53:34.712Z,0.54091
2023-03-13T05:58:36.312Z,0.65682
2023-03-13T06:03:38.142Z,0.99916
2023-03-13T06:08:39.958Z,1.24686
2023-03-13T06:13:41.744Z,0.69938
2023-03-13T06:18:43.556Z,-0.00561
2023-03-13T06:23:45.115Z,0.91723
2023-03-13T06:28:46.697Z,1.28211
2023-03-13T06:33:49.741Z,1.55585
2023-03-13T06:38:52.377Z,0.90421
2023-03-13T06:43:53.945Z,0.99821
2023-03-13T06:48:55.548Z,0.1827
2023-03-13T06:53:57.339Z,0.53615
2023-03-13T06:59:00.021Z,0.26146
2023-03-13T07:04:01.854Z,0.78671
2023-03-13T07:09:03.551Z,0.85879
2023-03-13T07:14:15.833Z,0.61522
2023-03-13T07:19:18.579Z,0.44024
2023-03-13T07:24:20.270Z,0.10839
2023-03-13T07:29:21.909Z,0.85848
2023-03-13T07:34:23.586Z,1.17604
2023-03-13T07:39:25.306Z,1.11666
2023-03-13T07:44:26.965Z,0.24939
2023-03-13T07:49:28.691Z,-0.02721
2023-03-13T07:54:30.307Z,-0.13137
2023-03-13T07:59:31.916Z,0.38467
2023-03-13T08:04:33.670Z,0.4558
2023-03-13T08:09:35.438Z,0.95406
2023-03-13T08:14:37.080Z,0.88229
2023-03-13T08:19:38.754Z,0.59712
2023-03-13T08:24:40.585Z,1.09919
2023-03-13T08:29:42.178Z,1.19891
2023-03-13T08:34:43.876Z,0.94517
2023-03-13T08:39:45.520Z,1.04775
2023-03-13T08:44:47.125Z,1.03123
2023-03-13T08:49:48.740Z,0.05282
2023-03-13T08:54:50.353Z,-0.54579
2023-03-13T08:59:51.987Z,-0.13327
2023-03-13T09:04:53.779Z,-0.16535
2023-03-13T09:09:55.482Z,0.4901
2023-03-13T09:14:57.143Z,0.73082
2023-03-13T09:20:00.887Z,0.77782
2023-03-13T09:25:02.939Z,0.98804
2023-03-13T09:30:04.550Z,0.69398
2023-03-13T09:35:06.171Z,0.29258
2023-03-13T09:40:07.799Z,0.38785
2023-03-13T09:45:09.421Z,0.70414
2023-03-13T09:50:11.044Z,0.26781
2023-03-13T09:55:12.662Z,0.42246
2023-03-13T10:00:14.315Z,0.58442
2023-03-13T10:05:15.996Z,0.68191
2023-03-13T10:10:17.859Z,0.67048
2023-03-13T10:15:19.524Z,0.75749
2023-03-13T10:20:21.342Z,1.2367
2023-03-13T10:25:23.042Z,0.99312
2023-03-13T10:30:24.779Z,0.51328
2023-03-13T10:35:26.384Z,0.82577
2023-03-13T10:40:28.098Z,0.4793
2023-03-13T10:45:29.866Z,0.27956
2023-03-13T10:50:31.498Z,0.58474
2023-03-13T10:55:33.137Z,0.3437
2023-03-13T11:00:34.822Z,0.74733
2023-03-13T11:05:36.342Z,0.70509
2023-03-13T11:10:38.116Z,0.4177
2023-03-13T11:15:39.743Z,0.69271
2023-03-13T11:20:41.399Z,-0.39177
2023-03-13T11:25:43.016Z,-0.78491
2023-03-13T11:30:44.640Z,-0.47592
2023-03-13T11:35:46.454Z,-0.16217
2023-03-13T11:40:48.089Z,0.49328
2023-03-13T11:45:49.809Z,0.71049
2023-03-13T11:50:51.553Z,-0.22251
2023-03-13T11:55:53.150Z,0.09124
2023-03-13T12:00:54.798Z,-0.065
2023-03-13T12:05:56.427Z,-0.1374
2023-03-13T12:10:58.105Z,-0.31555
2023-03-13T12:15:59.741Z,-0.53467
2023-03-13T12:21:01.409Z,-0.01578
2023-03-13T12:26:03.088Z,0.37483
2023-03-13T12:31:04.852Z,0.93755
2023-03-13T12:36:06.565Z,0.54186
2023-03-13T12:41:08.265Z,0.47899
2023-03-13T12:46:10.023Z,0.33894
2023-03-13T12:51:11.667Z,-0.20917
2023-03-13T12:56:13.327Z,-0.56706
2023-03-13T13:01:14.992Z,-0.79856
2023-03-13T13:06:16.727Z,-1.17233
2023-03-13T13:11:18.367Z,-0.72838
2023-03-13T13:16:20.025Z,-0.10692
2023-03-13T13:21:21.805Z,0.37165
2023-03-13T13:26:23.418Z,0.53996
2023-03-13T13:31:25.157Z,0.69239
2023-03-13T13:36:26.814Z,0.04011
2023-03-13T13:41:28.517Z,0.34116
2023-03-13T13:46:30.263Z,0.55488
2023-03-13T13:51:32.105Z,0.55234
2023-03-13T13:56:33.861Z,0.48915
2023-03-13T14:01:35.675Z,0.30877
2023-03-13T14:06:37.487Z,-0.19171
2023-03-13T14:11:39.382Z,0.1357
2023-03-13T14:16:41.217Z,0.05599
2023-03-13T14:21:42.851Z,0.24304
2023-03-13T14:26:44.486Z,0.40118
2023-03-13T14:31:46.290Z,0.68255
2023-03-13T14:36:48.046Z,0.48661
2023-03-13T14:41:49.789Z,0.19064
2023-03-13T14:46:51.433Z,0.20556
2023-03-13T14:51:53.177Z,-0.51276
2023-03-13T14:56:54.849Z,-0.69155
2023-03-13T15:01:56.467Z,-0.414
2023-03-13T15:06:58.111Z,-0.31524
2023-03-13T15:11:59.824Z,0.5498
2023-03-13T15:17:01.443Z,0.82704
2023-03-13T15:22:03.049Z,1.18589
2023-03-13T15:27:04.807Z,0.66762
2023-03-13T15:32:06.522Z,-0.78554
2023-03-13T15:37:08.200Z,-0.29999
2023-03-13T15:42:09.867Z,0.15984
2023-03-13T15:47:11.494Z,0.84609
2023-03-13T15:52:13.194Z,1.08617
2023-03-13T15:57:14.807Z,1.32022
2023-03-13T16:02:16.501Z,0.81751
2023-03-13T16:07:18.169Z,1.22654
2023-03-13T16:12:19.826Z,0.19413
2023-03-13T16:17:21.452Z,1.1138
2023-03-13T16:22:23.111Z,0.99757
2023-03-13T16:27:24.763Z,0.63555
2023-03-13T16:32:26.469Z,1.26147
2023-03-13T16:37:28.242Z,1.40024
2023-03-13T16:42:29.925Z,0.85784
2023-03-13T16:47:31.587Z,1.37547
2023-03-13T16:52:33.475Z,1.49393
2023-03-13T16:57:35.085Z,1.30434
2023-03-13T17:02:36.766Z,1.63429
2023-03-13T17:07:38.426Z,1.63112
2023-03-13T17:12:40.077Z,0.89563
2023-03-13T17:17:41.682Z,1.44407
2023-03-13T17:22:43.321Z,1.83563
2023-03-13T17:27:44.997Z,1.54537
2023-03-13T17:32:46.930Z,1.84325
2023-03-13T17:37:48.630Z,1.73877
2023-03-13T17:42:50.555Z,2.13732
2023-03-13T17:47:52.502Z,1.95662
2023-03-13T17:52:54.133Z,1.93852
2023-03-13T17:57:55.811Z,2.32659
2023-03-13T18:02:57.472Z,2.66671
2023-03-13T18:07:59.246Z,2.30436
2023-03-13T18:13:01.016Z,1.94614
2023-03-13T18:18:02.689Z,1.25797
2023-03-13T18:23:04.372Z,0.90897
2023-03-13T18:28:06.095Z,0.96073
2023-03-13T18:33:07.743Z,1.1608
2023-03-13T18:38:09.625Z,0.44945
2023-03-13T18:43:11.266Z,0.63364
2023-03-13T18:48:12.899Z,0.801
2023-03-13T18:53:14.562Z,1.58507
2023-03-13T18:58:16.205Z,1.97568
2023-03-13T19:03:17.901Z,2.44441
2023-03-13T19:08:19.540Z,2.06238
2023-03-13T19:13:21.200Z,2.21798
2023-03-13T19:18:22.913Z,2.74928
2023-03-13T19:23:24.504Z,2.50189
2023-03-13T19:28:26.154Z,2.74229
2023-03-13T19:33:27.778Z,2.52698
2023-03-13T19:38:29.462Z,2.63623
2023-03-13T19:43:31.323Z,2.35708
2023-03-13T19:48:32.981Z,1.32435
2023-03-13T19:53:34.570Z,1.2205
2023-03-13T19:58:36.309Z,1.57427
2023-03-13T20:03:37.941Z,2.1224
2023-03-13T20:08:39.711Z,2.1586
2023-03-13T20:13:41.350Z,2.63337
2023-03-13T20:18:43.118Z,2.66608
2023-03-13T20:23:44.732Z,2.6756
2023-03-13T20:28:46.436Z,2.61876
2023-03-13T20:33:48.039Z,2.51904
2023-03-13T20:38:49.726Z,2.60828
2023-03-13T20:43:51.516Z,2.57208
2023-03-13T20:48:53.127Z,2.23227
2023-03-13T20:53:54.834Z,2.7134
2023-03-13T20:58:56.469Z,2.896
2023-03-13T21:03:58.158Z,3.42793
2023-03-13T21:08:59.844Z,3.33171
2023-03-13T21:14:01.470Z,3.4092
2023-03-13T21:19:03.196Z,2.96396
2023-03-13T21:24:04.963Z,3.08241
2023-03-13T21:29:06.576Z,2.8201
2023-03-13T21:34:08.327Z,2.93188
2023-03-13T21:39:10.038Z,2.95856
2023-03-13T21:44:11.706Z,2.80962
2023-03-13T21:49:13.299Z,1.86135
2023-03-13T21:54:14.984Z,2.34406
2023-03-13T21:59:16.787Z,1.37484
2023-03-13T22:04:18.496Z,2.24879
2023-03-13T22:09:20.187Z,2.73118
2023-03-13T22:14:21.890Z,2.64956
2023-03-13T22:19:23.556Z,3.16022
2023-03-13T22:24:25.326Z,3.02112
2023-03-13T22:29:27.220Z,2.7569
2023-03-13T22:34:29.748Z,3.12878
2023-03-13T22:39:31.408Z,3.16244
2023-03-13T22:44:33.081Z,3.38506
2023-03-13T22:49:34.744Z,2.34279
2023-03-13T22:54:36.429Z,3.3152
2023-03-13T22:59:38.026Z,3.03764
2023-03-13T23:04:39.711Z,2.8979
2023-03-13T23:09:41.373Z,2.34088
2023-03-13T23:14:43.022Z,2.83757
2023-03-13T23:19:44.874Z,2.67148
2023-03-13T23:24:46.499Z,2.7226
2023-03-13T23:29:48.081Z,3.06336
2023-03-13T23:34:49.880Z,3.31488
2023-03-13T23:39:51.518Z,3.26121
2023-03-13T23:44:53.213Z,3.33203
2023-03-13T23:49:55.106Z,3.17705
2023-03-13T23:54:56.748Z,3.23199
2023-03-13T23:59:58.500Z,3.00683
